createdAt,value
2018-07-09T00:04:45.956Z,79.90
2018-07-09T00:07:14.638Z,80.50
2018-07-09T00:09:43.089Z,80.90
2018-07-09T00:12:11.530Z,80.70
2018-07-09T00:14:39.933Z,80.60
2018-07-09T00:17:08.457Z,80.90
2018-07-09T00:19:36.874Z,82.00
2018-07-09T00:22:05.296Z,81.80
2018-07-09T00:24:33.746Z,81.80
2018-07-09T00:27:02.177Z,81.80
2018-07-09T00:29:30.621Z,81.70
2018-07-09T00:31:59.037Z,81.70
2018-07-09T00:34:27.452Z,82.00
2018-07-09T00:36:55.876Z,82.00
2018-07-09T00:39:24.318Z,82.50
2018-07-09T00:41:53.245Z,82.60
2018-07-09T00:44:21.858Z,82.50
2018-07-09T00:46:50.308Z,83.10
2018-07-09T00:49:18.737Z,83.00
2018-07-09T00:51:47.474Z,83.10
2018-07-09T00:54:15.944Z,83.00
2018-07-09T00:56:44.548Z,83.20
2018-07-09T00:59:12.968Z,83.60
2018-07-09T01:01:41.408Z,83.40
2018-07-09T01:04:09.825Z,83.20
2018-07-09T01:06:38.291Z,83.40
2018-07-09T01:09:06.784Z,83.10
2018-07-09T01:11:45.363Z,83.50
2018-07-09T01:14:13.826Z,83.40
2018-07-09T01:16:42.263Z,83.70
2018-07-09T01:19:10.694Z,84.00
2018-07-09T01:21:39.123Z,84.20
2018-07-09T01:24:07.571Z,84.90
2018-07-09T01:26:36.025Z,84.70
2018-07-09T01:29:04.416Z,85.60
2018-07-09T01:31:32.850Z,85.00
2018-07-09T01:34:01.256Z,87.50
2018-07-09T01:36:29.713Z,86.40
2018-07-09T01:38:58.134Z,86.40
2018-07-09T01:41:26.577Z,86.30
2018-07-09T01:43:55.022Z,86.20
2018-07-09T01:46:23.446Z,86.50
2018-07-09T01:48:51.890Z,86.60
2018-07-09T01:51:20.323Z,86.80
2018-07-09T01:53:48.786Z,87.00
2018-07-09T01:56:17.263Z,86.90
2018-07-09T01:58:45.664Z,87.00
2018-07-09T02:01:14.085Z,87.10
2018-07-09T02:03:42.478Z,87.70
2018-07-09T02:06:10.908Z,87.90
2018-07-09T02:08:39.502Z,87.80
2018-07-09T02:11:07.933Z,87.60
2018-07-09T02:13:36.510Z,88.20
2018-07-09T02:16:04.924Z,88.50
2018-07-09T02:18:33.544Z,88.80
2018-07-09T02:21:01.946Z,88.90
2018-07-09T02:23:30.405Z,88.50
2018-07-09T02:25:58.870Z,88.50
2018-07-09T02:28:27.324Z,89.20
2018-07-09T02:30:55.766Z,89.40
2018-07-09T02:33:24.188Z,89.50
2018-07-09T02:35:52.618Z,89.90
2018-07-09T02:38:21.070Z,90.30
2018-07-09T02:40:49.510Z,90.30
2018-07-09T02:43:17.989Z,90.60
2018-07-09T02:45:46.388Z,90.30
2018-07-09T02:48:14.818Z,90.20
2018-07-09T02:50:43.285Z,90.10
2018-07-09T02:53:11.713Z,90.30
2018-07-09T02:55:40.133Z,90.70
2018-07-09T02:58:08.599Z,90.20
2018-07-09T03:00:37.096Z,90.80
2018-07-09T03:03:05.612Z,90.20
2018-07-09T03:05:34.205Z,90.10
2018-07-09T03:08:02.630Z,90.10
2018-07-09T03:10:31.100Z,90.10
2018-07-09T03:12:59.539Z,90.00
2018-07-09T03:15:27.974Z,90.10
2018-07-09T03:17:56.510Z,90.20
2018-07-09T03:20:25.003Z,90.40
2018-07-09T03:22:53.616Z,90.40
2018-07-09T03:25:22.107Z,90.80
2018-07-09T03:27:50.553Z,91.40
2018-07-09T03:30:19.031Z,90.40
2018-07-09T03:32:47.512Z,90.20
2018-07-09T03:35:15.988Z,90.00
2018-07-09T03:37:44.438Z,89.90
2018-07-09T03:40:12.904Z,89.80
2018-07-09T03:42:41.426Z,90.00
2018-07-09T03:45:09.896Z,90.10
2018-07-09T03:47:38.365Z,90.00
2018-07-09T03:50:06.994Z,90.00
2018-07-09T03:52:35.518Z,89.90
2018-07-09T03:55:04.137Z,90.50
2018-07-09T03:57:32.625Z,91.00
2018-07-09T04:00:01.256Z,91.30
2018-07-09T04:02:29.768Z,90.60
2018-07-09T04:04:58.245Z,90.60
2018-07-09T04:07:26.745Z,90.60
2018-07-09T04:09:55.200Z,90.60
2018-07-09T04:12:23.678Z,90.50
2018-07-09T04:14:52.104Z,90.60
2018-07-09T04:17:20.616Z,90.70
2018-07-09T04:19:49.097Z,90.70
2018-07-09T04:22:17.592Z,90.70
2018-07-09T04:24:46.052Z,90.50
2018-07-09T04:27:14.505Z,90.70
2018-07-09T04:29:42.934Z,90.80
2018-07-09T04:32:11.417Z,90.60
2018-07-09T04:34:39.860Z,90.80
2018-07-09T04:37:08.291Z,90.80
2018-07-09T04:39:36.793Z,90.80
2018-07-09T04:42:05.263Z,90.80
2018-07-09T04:44:33.700Z,90.80
2018-07-09T04:47:02.150Z,90.70
2018-07-09T04:49:30.825Z,91.70
2018-07-09T04:51:59.430Z,92.70
2018-07-09T04:54:27.926Z,92.30
2018-07-09T04:56:56.468Z,91.50
2018-07-09T04:59:24.956Z,92.20
2018-07-09T05:01:53.401Z,92.30
2018-07-09T05:04:21.844Z,92.30
2018-07-09T05:06:50.305Z,92.00
2018-07-09T05:09:18.742Z,91.50
2018-07-09T05:11:47.185Z,91.10
2018-07-09T05:14:15.639Z,91.10
2018-07-09T05:16:44.114Z,90.70
2018-07-09T05:19:12.590Z,90.50
2018-07-09T05:21:41.008Z,90.50
2018-07-09T05:24:09.456Z,90.60
2018-07-09T05:26:38.016Z,90.80
2018-07-09T05:29:06.507Z,90.90
2018-07-09T05:31:34.950Z,90.80
2018-07-09T05:34:03.424Z,90.90
2018-07-09T05:36:31.896Z,90.70
2018-07-09T05:39:00.561Z,91.50
2018-07-09T05:41:29.107Z,91.70
2018-07-09T05:43:57.604Z,91.40
2018-07-09T05:46:26.135Z,91.00
2018-07-09T05:48:54.677Z,91.00
2018-07-09T05:51:23.191Z,90.50
2018-07-09T05:53:51.700Z,90.20
2018-07-09T05:56:20.222Z,90.00
2018-07-09T05:58:48.700Z,90.20
2018-07-09T06:01:17.274Z,89.60
2018-07-09T06:03:45.824Z,89.60
2018-07-09T06:06:14.387Z,89.10
2018-07-09T06:08:42.846Z,89.20
2018-07-09T06:11:11.475Z,88.80
2018-07-09T06:13:39.939Z,88.30
2018-07-09T06:16:08.444Z,88.40
2018-07-09T06:18:36.893Z,88.10
2018-07-09T06:21:05.414Z,88.00
2018-07-09T06:26:02.155Z,87.50
2018-07-09T06:28:30.672Z,86.90
2018-07-09T06:30:59.439Z,86.40
2018-07-09T06:33:28.092Z,86.20
2018-07-09T06:35:56.894Z,85.30
2018-07-09T06:38:25.407Z,83.70
2018-07-09T06:40:53.987Z,83.80
2018-07-09T06:43:22.529Z,84.70
2018-07-09T06:45:51.207Z,84.40
2018-07-09T06:48:20.154Z,84.00
2018-07-09T06:50:48.747Z,83.70
2018-07-09T06:53:17.465Z,83.00
2018-07-09T06:55:46.264Z,80.40
2018-07-09T06:58:14.971Z,79.70
2018-07-09T07:00:43.750Z,79.50
2018-07-09T07:03:12.427Z,79.00
2018-07-09T07:05:41.126Z,78.80
2018-07-09T07:08:09.828Z,76.70
2018-07-09T07:10:38.482Z,75.50
2018-07-09T07:13:07.127Z,75.70
2018-07-09T07:15:35.833Z,75.40
2018-07-09T07:18:04.520Z,76.10
2018-07-09T07:20:33.489Z,75.60
2018-07-09T07:23:02.589Z,76.40
2018-07-09T07:25:31.919Z,74.90
2018-07-09T07:28:00.876Z,74.70
2018-07-09T07:30:29.746Z,74.10
2018-07-09T07:32:58.548Z,73.80
2018-07-09T07:35:27.646Z,72.30
2018-07-09T07:37:56.517Z,72.10
2018-07-09T07:40:25.396Z,73.30
2018-07-09T07:42:54.161Z,71.40
2018-07-09T07:45:23.072Z,72.50
2018-07-09T07:47:51.956Z,69.10
2018-07-09T07:50:20.889Z,69.10
2018-07-09T07:52:49.973Z,69.60
2018-07-09T07:55:18.934Z,69.70
2018-07-09T07:57:48.351Z,65.80
2018-07-09T08:02:50.828Z,63.60
2018-07-09T08:05:19.869Z,64.90
2018-07-09T08:07:48.878Z,63.70
2018-07-09T08:10:31.718Z,61.50
2018-07-09T08:13:13.736Z,57.20
2018-07-09T08:15:29.466Z,53.00
2018-07-09T08:17:58.250Z,54.20
2018-07-09T08:20:27.143Z,53.70
2018-07-09T08:23:27.240Z,53.40
2018-07-09T08:25:56.222Z,47.40
2018-07-09T08:28:27.963Z,45.70
2018-07-09T08:30:57.192Z,42.80
2018-07-09T08:36:05.539Z,42.30
2018-07-09T08:38:34.534Z,43.30
2018-07-09T08:41:03.501Z,40.30
2018-07-09T08:43:32.510Z,41.50
2018-07-09T08:46:01.781Z,37.60
2018-07-09T08:48:31.353Z,41.10
2018-07-09T08:53:29.311Z,37.80
2018-07-09T08:55:58.814Z,34.10
2018-07-09T08:58:27.917Z,36.10
2018-07-09T09:00:57.216Z,35.70
2018-07-09T09:03:26.250Z,31.90
2018-07-09T09:05:55.491Z,33.90
2018-07-09T09:08:24.500Z,32.60
2018-07-09T09:10:54.002Z,36.00
2018-07-09T09:13:23.406Z,37.10
2018-07-09T09:15:52.397Z,35.20
2018-07-09T09:18:21.380Z,34.50
2018-07-09T09:20:51.497Z,32.90
2018-07-09T09:23:20.515Z,29.30
2018-07-09T09:25:49.479Z,30.20
2018-07-09T09:28:18.446Z,34.70
2018-07-09T09:30:49.890Z,28.80
2018-07-09T09:33:19.088Z,29.70
2018-07-09T09:35:47.922Z,29.10
2018-07-09T09:38:17.123Z,29.80
2018-07-09T09:40:45.957Z,30.20
2018-07-09T09:43:15.143Z,31.00
2018-07-09T09:45:51.113Z,28.80
2018-07-09T09:48:19.996Z,29.40
2018-07-09T09:50:49.872Z,29.90
2018-07-09T09:53:32.570Z,29.70
2018-07-09T09:56:02.690Z,30.80
2018-07-09T09:58:31.766Z,29.40
2018-07-09T10:01:02.326Z,29.50
2018-07-09T10:03:31.882Z,29.60
2018-07-09T10:06:01.241Z,28.20
2018-07-09T10:08:30.831Z,29.90
2018-07-09T10:11:00.216Z,31.40
2018-07-09T10:15:58.574Z,28.60
2018-07-09T10:18:27.772Z,27.90
2018-07-09T10:20:57.069Z,29.50
2018-07-09T10:23:26.469Z,29.30
2018-07-09T10:25:55.705Z,32.40
2018-07-09T10:28:25.244Z,33.20
2018-07-09T10:30:54.445Z,30.10
2018-07-09T10:33:23.831Z,32.70
2018-07-09T10:35:53.908Z,32.60
2018-07-09T10:38:24.683Z,33.10
2018-07-09T10:40:53.592Z,31.30
2018-07-09T10:43:26.827Z,30.10
2018-07-09T10:45:55.724Z,32.30
2018-07-09T10:48:32.247Z,31.30
2018-07-09T10:51:08.268Z,33.40
2018-07-09T10:53:36.936Z,34.30
2018-07-09T10:56:06.520Z,34.70
2018-07-09T10:58:41.044Z,34.10
2018-07-09T11:01:09.898Z,31.40
2018-07-09T11:03:38.618Z,33.30
2018-07-09T11:13:56.857Z,37.30
2018-07-09T11:21:37.340Z,39.50
2018-07-09T11:24:07.334Z,38.90
2018-07-09T11:26:36.479Z,40.10
2018-07-09T11:29:05.335Z,40.30
2018-07-09T11:31:34.135Z,39.40
2018-07-09T11:34:03.169Z,39.50
2018-07-09T11:36:32.103Z,38.20
2018-07-09T11:39:01.767Z,36.50
2018-07-09T11:41:30.708Z,37.60
2018-07-09T11:43:59.426Z,36.70
2018-07-09T11:46:28.204Z,36.40
2018-07-09T11:48:57.122Z,36.00
2018-07-09T11:51:25.958Z,37.90
2018-07-09T11:53:54.836Z,37.90
2018-07-09T11:56:23.866Z,37.80
2018-07-09T11:58:52.640Z,37.10
2018-07-09T12:01:22.888Z,36.70
2018-07-09T12:03:51.874Z,36.70
2018-07-09T12:08:50.886Z,38.10
2018-07-09T12:11:19.792Z,38.00
2018-07-09T12:13:48.638Z,38.80
2018-07-09T12:16:24.593Z,39.50
2018-07-09T12:18:53.521Z,35.60
2018-07-09T12:21:22.618Z,35.40
2018-07-09T12:23:51.560Z,36.50
2018-07-09T12:26:20.449Z,36.00
2018-07-09T12:28:49.219Z,34.10
2018-07-09T12:31:18.272Z,36.90
2018-07-09T12:33:47.165Z,34.90
2018-07-09T12:36:16.231Z,37.30
2018-07-09T12:38:45.103Z,34.90
2018-07-09T12:41:14.043Z,32.30
2018-07-09T12:43:42.744Z,35.30
2018-07-09T12:46:11.390Z,36.60
2018-07-09T12:48:40.026Z,37.30
2018-07-09T12:51:09.146Z,36.30
2018-07-09T12:53:38.008Z,37.30
2018-07-09T12:56:06.944Z,34.60
2018-07-09T12:58:35.608Z,35.10
2018-07-09T13:01:04.473Z,36.30
2018-07-09T13:03:33.337Z,34.60
2018-07-09T13:06:02.032Z,33.90
2018-07-09T13:08:30.771Z,36.30
2018-07-09T13:10:59.572Z,34.20
2018-07-09T13:13:28.596Z,36.50
2018-07-09T13:15:57.779Z,35.70
2018-07-09T13:18:26.617Z,35.70
2018-07-09T13:20:55.546Z,37.10
2018-07-09T13:23:24.360Z,36.70
2018-07-09T13:25:53.121Z,37.10
2018-07-09T13:28:21.878Z,38.90
2018-07-09T13:30:50.681Z,39.20
2018-07-09T13:33:19.235Z,37.60
2018-07-09T13:35:47.837Z,36.50
2018-07-09T13:38:16.505Z,36.00
2018-07-09T13:40:45.059Z,37.80
2018-07-09T13:43:13.717Z,35.60
2018-07-09T13:45:42.331Z,36.00
2018-07-09T13:50:39.119Z,34.20
2018-07-09T13:53:07.906Z,33.90
2018-07-09T13:55:36.653Z,32.90
2018-07-09T13:58:05.390Z,33.10
2018-07-09T14:00:34.196Z,33.90
2018-07-09T14:03:02.996Z,32.10
2018-07-09T14:05:35.323Z,31.30
2018-07-09T14:08:03.872Z,31.10
2018-07-09T14:10:32.493Z,29.30
2018-07-09T14:13:01.107Z,32.80
2018-07-09T14:15:29.968Z,33.60
2018-07-09T14:18:07.773Z,31.80
2018-07-09T14:20:38.277Z,33.00
2018-07-09T14:23:08.007Z,30.00
2018-07-09T14:25:36.696Z,30.80
2018-07-09T14:28:07.267Z,30.30
2018-07-09T14:30:35.799Z,31.90
2018-07-09T14:33:04.796Z,32.00
2018-07-09T14:35:35.566Z,32.80
2018-07-09T14:38:04.468Z,31.80
2018-07-09T14:40:43.925Z,32.50
2018-07-09T14:43:13.585Z,33.20
2018-07-09T14:45:42.181Z,30.60
2018-07-09T14:48:14.074Z,29.80
2018-07-09T14:50:42.728Z,31.10
2018-07-09T14:53:12.508Z,31.90
2018-07-09T14:55:41.711Z,32.90
2018-07-09T14:58:15.128Z,30.60
2018-07-09T15:00:44.911Z,33.90
2018-07-09T15:03:14.016Z,33.50
2018-07-09T15:05:42.762Z,33.90
2018-07-09T15:08:11.587Z,34.70
2018-07-09T15:10:42.118Z,33.50
2018-07-09T15:13:11.795Z,35.00
2018-07-09T15:15:40.617Z,34.90
2018-07-09T15:18:09.879Z,32.10
2018-07-09T15:20:43.557Z,33.90
2018-07-09T15:23:12.314Z,34.30
2018-07-09T15:25:45.167Z,34.30
2018-07-09T15:28:15.404Z,34.80
2018-07-09T15:30:46.631Z,35.90
2018-07-09T15:33:15.601Z,36.30
2018-07-09T15:35:44.279Z,36.30
2018-07-09T15:38:12.962Z,37.70
2018-07-09T15:40:41.809Z,36.90
2018-07-09T15:43:11.939Z,35.80
2018-07-09T15:45:49.730Z,35.70
2018-07-09T15:48:18.454Z,35.90
2018-07-09T15:50:47.170Z,35.10
2018-07-09T15:53:16.344Z,34.60
2018-07-09T15:55:46.313Z,36.50
2018-07-09T15:58:15.115Z,36.40
2018-07-09T16:00:43.854Z,36.60
2018-07-09T16:03:13.069Z,37.10
2018-07-09T16:10:38.806Z,36.00
2018-07-09T16:13:07.797Z,37.70
2018-07-09T16:15:49.055Z,36.90
2018-07-09T16:18:17.793Z,36.50
2018-07-09T16:20:48.953Z,36.10
2018-07-09T16:28:38.033Z,37.40
2018-07-09T16:31:07.251Z,37.20
2018-07-09T16:33:43.569Z,37.40
2018-07-09T16:36:17.679Z,37.60
2018-07-09T16:38:55.337Z,37.90
2018-07-09T16:42:09.465Z,37.90
2018-07-09T16:44:43.110Z,37.30
2018-07-09T16:47:14.412Z,37.80
2018-07-09T16:50:06.543Z,39.60
2018-07-09T16:52:35.698Z,39.20
2018-07-09T17:08:14.145Z,39.90
2018-07-09T17:11:47.344Z,40.90
2018-07-09T17:14:24.650Z,41.30
2018-07-09T17:17:04.684Z,40.90
2018-07-09T17:19:33.929Z,40.60
2018-07-09T17:22:06.845Z,40.90
2018-07-09T17:24:42.018Z,42.20
2018-07-09T17:27:11.491Z,42.50
2018-07-09T17:29:40.759Z,43.30
2018-07-09T17:32:09.959Z,43.10
2018-07-09T17:34:54.833Z,43.10
2018-07-09T17:44:40.083Z,43.00
2018-07-09T17:47:13.640Z,43.50
2018-07-09T17:49:45.004Z,44.70
2018-07-09T17:52:17.300Z,45.40
2018-07-09T17:54:46.307Z,45.20
2018-07-09T17:57:15.036Z,44.60
2018-07-09T17:59:43.939Z,44.50
2018-07-09T18:02:14.036Z,45.10
2018-07-09T18:04:42.793Z,45.20
2018-07-09T18:07:12.093Z,45.30
2018-07-09T18:09:41.324Z,46.70
2018-07-09T18:12:12.567Z,45.80
2018-07-09T18:14:41.564Z,46.50
2018-07-09T18:17:10.639Z,47.50
2018-07-09T18:19:39.539Z,47.00
2018-07-09T18:22:08.579Z,46.60
2018-07-09T18:24:37.602Z,46.40
2018-07-09T18:27:06.594Z,47.80
2018-07-09T18:29:35.897Z,47.80
2018-07-09T18:32:04.770Z,48.00
2018-07-09T18:34:33.924Z,48.10
2018-07-09T18:37:06.806Z,48.00
2018-07-09T18:39:38.067Z,49.00
2018-07-09T18:42:07.107Z,49.30
2018-07-09T18:55:26.688Z,49.40
2018-07-09T18:57:55.690Z,50.60
2018-07-09T19:00:24.725Z,56.00
2018-07-09T19:02:53.762Z,54.00
2018-07-09T19:05:40.421Z,53.80
2018-07-09T19:16:13.451Z,53.20
2018-07-09T19:18:53.722Z,54.50
2018-07-09T19:24:44.907Z,54.70
2018-07-09T19:27:12.417Z,55.80
2018-07-09T19:29:39.992Z,55.20
2018-07-09T19:32:07.463Z,56.70
2018-07-09T19:34:34.910Z,56.00
2018-07-09T19:37:05.221Z,55.50
2018-07-09T19:39:32.846Z,55.20
2018-07-09T19:42:00.314Z,56.40
2018-07-09T19:46:55.415Z,55.60
2018-07-09T19:49:22.751Z,56.70
2018-07-09T19:51:50.488Z,55.60
2018-07-09T19:54:17.809Z,55.90
2018-07-09T19:56:45.248Z,55.80
2018-07-09T19:59:12.690Z,57.90
2018-07-09T20:01:40.071Z,56.50
2018-07-09T20:04:07.434Z,56.80
2018-07-09T20:06:34.847Z,58.60
2018-07-09T20:09:07.626Z,58.20
2018-07-09T20:11:40.440Z,58.10
2018-07-09T20:15:10.886Z,57.30
2018-07-09T20:17:42.524Z,58.00
2018-07-09T20:20:09.904Z,59.30
2018-07-09T20:22:37.314Z,58.10
2018-07-09T20:25:04.666Z,58.00
2018-07-09T20:27:32.118Z,57.80
2018-07-09T20:29:59.444Z,59.20
2018-07-09T20:32:26.838Z,57.90
2018-07-09T20:34:54.186Z,57.80
2018-07-09T20:37:21.694Z,57.90
2018-07-09T20:42:16.801Z,58.20
2018-07-09T20:44:44.372Z,58.40
2018-07-09T20:47:11.718Z,58.90
2018-07-09T20:49:39.235Z,58.50
2018-07-09T20:52:06.557Z,58.10
2018-07-09T20:54:33.909Z,58.10
2018-07-09T20:57:01.350Z,58.30
2018-07-09T20:59:28.827Z,58.70
2018-07-09T21:01:56.241Z,59.00
2018-07-09T21:04:27.409Z,59.70
2018-07-09T21:06:56.230Z,59.70
2018-07-09T21:09:23.891Z,59.90
2018-07-09T21:11:51.235Z,59.40
2018-07-09T21:14:18.693Z,60.30
2018-07-09T21:16:46.044Z,61.20
2018-07-09T21:19:13.410Z,61.30
2018-07-09T21:21:40.846Z,61.90
2018-07-09T21:24:08.274Z,62.10
2018-07-09T21:26:35.703Z,62.10
2018-07-09T21:29:03.125Z,63.50
2018-07-09T21:31:30.474Z,64.70
2018-07-09T21:33:57.940Z,63.30
2018-07-09T21:36:25.274Z,63.50
2018-07-09T21:38:52.614Z,64.80
2018-07-09T21:41:19.989Z,64.10
2018-07-09T21:43:47.305Z,66.00
2018-07-09T21:46:15.278Z,66.30
2018-07-09T21:48:42.739Z,66.30
2018-07-09T21:51:12.137Z,65.50
2018-07-09T21:53:39.528Z,65.40
2018-07-09T21:56:06.932Z,66.00
2018-07-09T21:58:34.284Z,66.40
2018-07-09T22:01:01.703Z,66.20
2018-07-09T22:03:29.067Z,65.90
2018-07-09T22:05:56.480Z,65.50
2018-07-09T22:08:24.036Z,65.90
2018-07-09T22:10:51.458Z,65.90
2018-07-09T22:13:18.813Z,65.90
2018-07-09T22:15:46.148Z,65.90
2018-07-09T22:18:13.481Z,66.40
2018-07-09T22:20:40.852Z,66.80
2018-07-09T22:23:08.243Z,67.10
2018-07-09T22:25:35.606Z,66.20
2018-07-09T22:28:03.133Z,67.10
2018-07-09T22:30:31.986Z,67.50
2018-07-09T22:33:00.718Z,68.50
2018-07-09T22:35:29.574Z,67.90
2018-07-09T22:37:58.907Z,68.50
2018-07-09T22:40:27.517Z,67.80
2018-07-09T22:42:56.201Z,67.80
2018-07-09T22:45:24.922Z,67.80
2018-07-09T22:47:53.490Z,67.80
2018-07-09T22:50:21.988Z,67.50
2018-07-09T22:52:50.619Z,67.70
2018-07-09T22:55:30.547Z,68.30
2018-07-09T22:57:59.055Z,67.70
2018-07-09T23:00:27.736Z,67.90
2018-07-09T23:03:14.317Z,67.80
2018-07-09T23:05:43.183Z,68.90
2018-07-09T23:08:11.785Z,68.70
2018-07-09T23:12:55.442Z,67.90
2018-07-09T23:15:35.318Z,68.70
2018-07-09T23:18:20.281Z,68.60
2018-07-09T23:21:00.075Z,69.20
2018-07-09T23:23:28.656Z,70.60
2018-07-09T23:25:56.137Z,71.80
2018-07-09T23:28:23.525Z,73.20
2018-07-09T23:30:51.013Z,73.40
2018-07-09T23:33:18.565Z,73.80
2018-07-09T23:35:46.244Z,73.40
2018-07-09T23:38:13.630Z,73.70
2018-07-09T23:40:40.981Z,73.70
2018-07-09T23:43:08.372Z,74.10
2018-07-09T23:45:35.728Z,74.60
2018-07-09T23:48:03.091Z,74.00
2018-07-09T23:50:30.507Z,73.80
2018-07-09T23:52:58.061Z,73.50
2018-07-09T23:55:26.951Z,73.50
2018-07-09T23:59:33.864Z,73.60
